createdAt,value
2023-03-19T00:00:38.079Z,98249.00
2023-03-19T00:03:04.676Z,98248.00
2023-03-19T00:05:31.397Z,98250.00
2023-03-19T00:07:58.061Z,98244.00
2023-03-19T00:10:24.547Z,98245.00
2023-03-19T00:12:51.084Z,98241.00
2023-03-19T00:15:17.730Z,98247.00
2023-03-19T00:17:44.423Z,98241.00
2023-03-19T00:20:12.612Z,98246.00
2023-03-19T00:22:40.042Z,98251.00
2023-03-19T00:25:08.259Z,98247.00
2023-03-19T00:27:35.582Z,98252.00
2023-03-19T00:30:02.616Z,98252.00
2023-03-19T00:32:30.071Z,98253.00
2023-03-19T00:34:56.780Z,98262.00
2023-03-19T00:37:23.410Z,98264.00
2023-03-19T00:39:50.284Z,98261.00
2023-03-19T00:42:16.895Z,98256.00
2023-03-19T00:44:43.457Z,98262.00
2023-03-19T00:47:10.036Z,98259.00
2023-03-19T00:49:36.814Z,98256.00
2023-03-19T00:52:03.440Z,98263.00
2023-03-19T00:54:32.253Z,98268.00
2023-03-19T00:56:59.214Z,98263.00
2023-03-19T00:59:26.214Z,98264.00
2023-03-19T01:01:52.797Z,98265.00
2023-03-19T01:04:19.461Z,98267.00
2023-03-19T01:06:46.173Z,98268.00
2023-03-19T01:09:12.846Z,98263.00
2023-03-19T01:11:39.456Z,98265.00
2023-03-19T01:14:07.555Z,98259.00
2023-03-19T01:16:34.748Z,98257.00
2023-03-19T01:19:02.205Z,98250.00
2023-03-19T01:21:31.012Z,98268.00
2023-03-19T01:23:58.445Z,98269.00
2023-03-19T01:26:27.325Z,98274.00
2023-03-19T01:28:58.668Z,98267.00
2023-03-19T01:31:26.334Z,98263.00
2023-03-19T01:34:13.007Z,98267.00
2023-03-19T01:36:49.612Z,98266.00
2023-03-19T01:39:21.485Z,98269.00
2023-03-19T01:41:49.127Z,98270.00
2023-03-19T01:44:34.737Z,98259.00
2023-03-19T01:47:34.636Z,98273.00
2023-03-19T01:50:30.149Z,98275.00
2023-03-19T01:53:17.779Z,98263.00
2023-03-19T01:55:59.579Z,98269.00
2023-03-19T01:58:36.271Z,98261.00
2023-03-19T02:01:34.205Z,98263.00
2023-03-19T02:04:00.920Z,98264.00
2023-03-19T02:06:30.888Z,98263.00
2023-03-19T02:08:59.220Z,98260.00
2023-03-19T02:11:26.397Z,98261.00
2023-03-19T02:13:53.127Z,98267.00
2023-03-19T02:16:19.901Z,98260.00
2023-03-19T02:18:47.846Z,98259.00
2023-03-19T02:21:20.052Z,98260.00
2023-03-19T02:24:05.124Z,98260.00
2023-03-19T02:26:45.262Z,98262.00
2023-03-19T02:29:11.995Z,98259.00
2023-03-19T02:31:38.924Z,98259.00
2023-03-19T02:34:27.554Z,98266.00
2023-03-19T02:36:58.846Z,98267.00
2023-03-19T02:39:34.477Z,98266.00
2023-03-19T02:42:02.134Z,98278.00
2023-03-19T02:44:30.638Z,98282.00
2023-03-19T02:46:57.331Z,98278.00
2023-03-19T02:49:24.801Z,98279.00
2023-03-19T02:51:51.757Z,98280.00
2023-03-19T02:54:18.312Z,98283.00
2023-03-19T02:56:44.873Z,98274.00
2023-03-19T02:59:11.623Z,98274.00
2023-03-19T03:01:38.335Z,98275.00
2023-03-19T03:04:05.336Z,98278.00
2023-03-19T03:06:32.404Z,98270.00
2023-03-19T03:09:01.691Z,98274.00
2023-03-19T03:11:28.252Z,98275.00
2023-03-19T03:13:54.808Z,98282.00
2023-03-19T03:16:21.710Z,98274.00
2023-03-19T03:18:48.590Z,98260.00
2023-03-19T03:21:15.375Z,98258.00
2023-03-19T03:23:42.054Z,98258.00
2023-03-19T03:26:08.603Z,98257.00
2023-03-19T03:28:35.490Z,98267.00
2023-03-19T03:31:02.741Z,98279.00
2023-03-19T03:33:29.963Z,98274.00
2023-03-19T03:35:56.667Z,98280.00
2023-03-19T03:38:23.606Z,98285.00
2023-03-19T03:40:52.501Z,98278.00
2023-03-19T03:43:21.734Z,98286.00
2023-03-19T03:45:48.794Z,98287.00
2023-03-19T03:48:16.770Z,98287.00
2023-03-19T03:50:43.906Z,98282.00
2023-03-19T03:53:15.949Z,98288.00
2023-03-19T03:55:42.858Z,98284.00
2023-03-19T03:58:09.974Z,98281.00
2023-03-19T04:00:36.936Z,98282.00
2023-03-19T04:03:03.748Z,98293.00
2023-03-19T04:05:30.985Z,98291.00
2023-03-19T04:07:58.493Z,98287.00
2023-03-19T04:10:25.877Z,98290.00
2023-03-19T04:12:52.519Z,98295.00
2023-03-19T04:15:19.419Z,98296.00
2023-03-19T04:17:47.566Z,98306.00
2023-03-19T04:20:18.059Z,98297.00
2023-03-19T04:22:45.294Z,98304.00
2023-03-19T04:25:11.920Z,98311.00
2023-03-19T04:27:39.774Z,98300.00
2023-03-19T04:30:09.412Z,98317.00
2023-03-19T04:32:37.471Z,98311.00
2023-03-19T04:35:04.481Z,98312.00
2023-03-19T04:37:31.281Z,98301.00
2023-03-19T04:39:58.063Z,98308.00
2023-03-19T04:42:24.856Z,98304.00
2023-03-19T04:45:08.579Z,98311.00
2023-03-19T04:47:35.564Z,98309.00
2023-03-19T04:50:02.782Z,98310.00
2023-03-19T04:52:33.297Z,98308.00
2023-03-19T04:55:00.169Z,98303.00
2023-03-19T04:57:27.064Z,98300.00
2023-03-19T04:59:55.948Z,98316.00
2023-03-19T05:02:23.445Z,98316.00
2023-03-19T05:04:50.580Z,98316.00
2023-03-19T05:07:17.172Z,98315.00
2023-03-19T05:09:46.210Z,98309.00
2023-03-19T05:12:13.752Z,98310.00
2023-03-19T05:14:47.278Z,98322.00
2023-03-19T05:17:22.542Z,98319.00
2023-03-19T05:20:04.960Z,98306.00
2023-03-19T05:22:34.235Z,98323.00
2023-03-19T05:25:00.881Z,98319.00
2023-03-19T05:27:29.554Z,98323.00
2023-03-19T05:30:06.922Z,98316.00
2023-03-19T05:32:53.058Z,98319.00
2023-03-19T05:35:40.497Z,98323.00
2023-03-19T05:38:15.511Z,98323.00
2023-03-19T05:40:45.594Z,98323.00
2023-03-19T05:43:22.375Z,98323.00
2023-03-19T05:45:54.330Z,98320.00
2023-03-19T05:48:25.927Z,98323.00
2023-03-19T05:50:52.848Z,98317.00
2023-03-19T05:53:22.685Z,98328.00
2023-03-19T05:56:09.826Z,98331.00
2023-03-19T05:58:51.780Z,98335.00
2023-03-19T06:01:22.951Z,98328.00
2023-03-19T06:03:50.161Z,98340.00
2023-03-19T06:06:17.329Z,98338.00
2023-03-19T06:08:45.623Z,98328.00
2023-03-19T06:11:16.939Z,98339.00
2023-03-19T06:13:48.819Z,98340.00
2023-03-19T06:16:16.861Z,98337.00
2023-03-19T06:18:50.916Z,98342.00
2023-03-19T06:21:17.879Z,98340.00
2023-03-19T06:23:44.526Z,98343.00
2023-03-19T06:26:14.506Z,98345.00
2023-03-19T06:28:47.007Z,98351.00
2023-03-19T06:31:14.664Z,98360.00
2023-03-19T06:33:57.955Z,98363.00
2023-03-19T06:36:30.905Z,98360.00
2023-03-19T06:38:57.732Z,98353.00
2023-03-19T06:41:25.141Z,98362.00
2023-03-19T06:43:53.436Z,98365.00
2023-03-19T06:46:20.019Z,98374.00
2023-03-19T06:48:46.658Z,98365.00
2023-03-19T06:51:13.216Z,98366.00
2023-03-19T06:53:39.984Z,98368.00
2023-03-19T06:56:06.644Z,98363.00
2023-03-19T06:58:33.168Z,98364.00
2023-03-19T07:00:59.884Z,98374.00
2023-03-19T07:03:26.405Z,98368.00
2023-03-19T07:05:53.470Z,98369.00
2023-03-19T07:08:20.130Z,98377.00
2023-03-19T07:10:46.753Z,98376.00
2023-03-19T07:13:13.276Z,98370.00
2023-03-19T07:15:40.169Z,98376.00
2023-03-19T07:18:06.783Z,98380.00
2023-03-19T07:20:33.593Z,98392.00
2023-03-19T07:23:00.473Z,98393.00
2023-03-19T07:25:26.970Z,98401.00
2023-03-19T07:27:55.911Z,98401.00
2023-03-19T07:30:22.679Z,98396.00
2023-03-19T07:32:49.163Z,98399.00
2023-03-19T07:35:15.937Z,98392.00
2023-03-19T07:37:42.826Z,98403.00
2023-03-19T07:40:10.136Z,98400.00
2023-03-19T07:42:36.741Z,98400.00
2023-03-19T07:45:04.829Z,98404.00
2023-03-19T07:47:31.641Z,98395.00
2023-03-19T07:49:58.238Z,98384.00
2023-03-19T07:52:26.001Z,98393.00
2023-03-19T07:54:52.956Z,98394.00
2023-03-19T07:57:19.843Z,98393.00
2023-03-19T07:59:46.558Z,98391.00
2023-03-19T08:02:13.988Z,98397.00
2023-03-19T08:04:41.408Z,98399.00
2023-03-19T08:07:10.719Z,98396.00
2023-03-19T08:09:37.559Z,98389.00
2023-03-19T08:12:04.680Z,98393.00
2023-03-19T08:14:31.318Z,98392.00
2023-03-19T08:16:57.935Z,98407.00
2023-03-19T08:19:24.479Z,98406.00
2023-03-19T08:21:51.182Z,98394.00
2023-03-19T08:24:18.748Z,98403.00
2023-03-19T08:26:46.331Z,98397.00
2023-03-19T08:29:12.877Z,98396.00
2023-03-19T08:31:39.485Z,98399.00
2023-03-19T08:34:07.993Z,98400.00
2023-03-19T08:36:34.510Z,98404.00
2023-03-19T08:39:01.251Z,98406.00
2023-03-19T08:41:27.875Z,98406.00
2023-03-19T08:43:54.443Z,98404.00
2023-03-19T08:46:21.372Z,98405.00
2023-03-19T08:48:48.018Z,98404.00
2023-03-19T08:51:14.689Z,98405.00
2023-03-19T08:53:41.385Z,98411.00
2023-03-19T08:56:08.109Z,98413.00
2023-03-19T08:58:34.898Z,98411.00
2023-03-19T09:01:07.149Z,98420.00
2023-03-19T09:03:33.745Z,98420.00
2023-03-19T09:06:01.946Z,98423.00
2023-03-19T09:08:29.504Z,98425.00
2023-03-19T09:10:56.597Z,98420.00
2023-03-19T09:13:24.356Z,98420.00
2023-03-19T09:15:51.964Z,98426.00
2023-03-19T09:18:20.525Z,98429.00
2023-03-19T09:20:48.209Z,98428.00
2023-03-19T09:23:14.743Z,98433.00
2023-03-19T09:25:41.401Z,98428.00
2023-03-19T09:28:08.175Z,98430.00
2023-03-19T09:30:34.807Z,98437.00
2023-03-19T09:33:01.545Z,98426.00
2023-03-19T09:35:31.300Z,98426.00
2023-03-19T09:37:59.123Z,98432.00
2023-03-19T09:40:39.358Z,98441.00
2023-03-19T09:43:33.043Z,98436.00
2023-03-19T09:46:02.048Z,98440.00
2023-03-19T09:49:04.532Z,98440.00
2023-03-19T09:51:43.309Z,98441.00
2023-03-19T09:54:33.634Z,98445.00
2023-03-19T09:57:00.341Z,98452.00
2023-03-19T09:59:28.546Z,98449.00
2023-03-19T10:02:24.176Z,98452.00
2023-03-19T10:05:08.733Z,98447.00
2023-03-19T10:07:47.757Z,98454.00
2023-03-19T10:10:37.659Z,98447.00
2023-03-19T10:13:41.382Z,98458.00
2023-03-19T10:16:16.935Z,98451.00
2023-03-19T10:18:49.841Z,98453.00
2023-03-19T10:21:22.575Z,98461.00
2023-03-19T10:23:57.706Z,98455.00
2023-03-19T10:26:35.457Z,98464.00
2023-03-19T10:29:23.578Z,98463.00
2023-03-19T10:32:06.139Z,98470.00
2023-03-19T10:34:38.002Z,98477.00
2023-03-19T10:37:22.614Z,98471.00
2023-03-19T10:39:51.828Z,98477.00
2023-03-19T10:42:27.663Z,98477.00
2023-03-19T10:45:01.980Z,98472.00
2023-03-19T10:47:28.583Z,98477.00
2023-03-19T10:49:57.293Z,98486.00
2023-03-19T10:52:36.935Z,98482.00
2023-03-19T10:55:13.844Z,98484.00
2023-03-19T10:57:43.411Z,98487.00
2023-03-19T11:00:18.471Z,98479.00
2023-03-19T11:02:54.144Z,98486.00
2023-03-19T11:05:32.084Z,98487.00
2023-03-19T11:08:01.920Z,98484.00
2023-03-19T11:10:31.586Z,98484.00
2023-03-19T11:13:00.777Z,98486.00
2023-03-19T11:15:36.930Z,98495.00
2023-03-19T11:18:16.966Z,98491.00
2023-03-19T11:20:50.408Z,98490.00
2023-03-19T11:23:18.043Z,98501.00
2023-03-19T11:25:53.617Z,98490.00
2023-03-19T11:28:26.821Z,98501.00
2023-03-19T11:31:18.240Z,98500.00
2023-03-19T11:34:00.250Z,98498.00
2023-03-19T11:36:48.191Z,98497.00
2023-03-19T11:39:17.692Z,98504.00
2023-03-19T11:41:49.121Z,98491.00
2023-03-19T11:44:22.435Z,98492.00
2023-03-19T11:47:26.223Z,98493.00
2023-03-19T11:50:18.321Z,98503.00
2023-03-19T11:53:14.375Z,98492.00
2023-03-19T11:55:48.471Z,98493.00
2023-03-19T11:58:50.489Z,98492.00
2023-03-19T12:01:20.498Z,98487.00
2023-03-19T12:03:50.153Z,98499.00
2023-03-19T12:06:34.419Z,98495.00
2023-03-19T12:09:07.856Z,98487.00
2023-03-19T12:11:48.341Z,98492.00
2023-03-19T12:14:52.747Z,98484.00
2023-03-19T12:17:46.398Z,98483.00
2023-03-19T12:20:32.556Z,98482.00
2023-03-19T12:23:34.723Z,98485.00
2023-03-19T12:26:04.907Z,98490.00
2023-03-19T12:28:51.616Z,98498.00
2023-03-19T12:31:21.281Z,98493.00
2023-03-19T12:34:16.674Z,98501.00
2023-03-19T12:37:12.455Z,98493.00
2023-03-19T12:39:46.530Z,98505.00
2023-03-19T12:42:17.548Z,98498.00
2023-03-19T12:44:51.238Z,98497.00
2023-03-19T12:47:26.646Z,98507.00
2023-03-19T12:50:01.392Z,98498.00
2023-03-19T12:52:42.234Z,98480.00
2023-03-19T12:55:21.076Z,98487.00
2023-03-19T12:57:53.787Z,98495.00
2023-03-19T13:00:37.787Z,98486.00
2023-03-19T13:03:07.616Z,98484.00
2023-03-19T13:05:47.822Z,98477.00
2023-03-19T13:08:23.539Z,98471.00
2023-03-19T13:10:50.285Z,98477.00
2023-03-19T13:13:27.595Z,98475.00
2023-03-19T13:16:00.132Z,98471.00
2023-03-19T13:18:48.475Z,98463.00
2023-03-19T13:21:25.059Z,98463.00
2023-03-19T13:24:14.376Z,98458.00
2023-03-19T13:26:41.092Z,98465.00
2023-03-19T13:29:07.665Z,98460.00
2023-03-19T13:31:36.581Z,98458.00
2023-03-19T13:34:20.340Z,98450.00
2023-03-19T13:37:12.772Z,98446.00
2023-03-19T13:39:40.134Z,98444.00
2023-03-19T13:42:27.735Z,98449.00
2023-03-19T13:45:03.164Z,98440.00
2023-03-19T13:47:32.212Z,98439.00
2023-03-19T13:50:48.973Z,98440.00
2023-03-19T13:53:31.191Z,98446.00
2023-03-19T13:55:59.559Z,98432.00
2023-03-19T13:58:47.791Z,98430.00
2023-03-19T14:01:26.327Z,98434.00
2023-03-19T14:04:14.750Z,98437.00
2023-03-19T14:06:47.765Z,98437.00
2023-03-19T14:09:38.538Z,98445.00
2023-03-19T14:12:25.052Z,98436.00
2023-03-19T14:14:57.087Z,98441.00
2023-03-19T14:17:45.116Z,98428.00
2023-03-19T14:20:12.758Z,98427.00
2023-03-19T14:22:58.724Z,98435.00
2023-03-19T14:25:27.856Z,98425.00
2023-03-19T14:27:59.217Z,98432.00
2023-03-19T14:30:38.880Z,98427.00
2023-03-19T14:33:08.434Z,98420.00
2023-03-19T14:35:42.782Z,98418.00
2023-03-19T14:38:20.914Z,98425.00
2023-03-19T14:40:51.752Z,98426.00
2023-03-19T14:43:28.456Z,98409.00
2023-03-19T14:46:03.405Z,98415.00
2023-03-19T14:49:12.093Z,98426.00
2023-03-19T14:52:04.830Z,98430.00
2023-03-19T14:54:42.129Z,98424.00
2023-03-19T14:57:17.088Z,98429.00
2023-03-19T14:59:44.042Z,98432.00
2023-03-19T15:02:38.754Z,98428.00
2023-03-19T15:05:34.094Z,98430.00
2023-03-19T15:08:04.322Z,98428.00
2023-03-19T15:10:58.765Z,98425.00
2023-03-19T15:13:55.598Z,98420.00
2023-03-19T15:16:31.338Z,98426.00
2023-03-19T15:18:58.667Z,98421.00
2023-03-19T15:21:25.652Z,98428.00
2023-03-19T15:23:52.477Z,98426.00
2023-03-19T15:26:31.141Z,98421.00
2023-03-19T15:28:59.541Z,98427.00
2023-03-19T15:31:51.601Z,98425.00
2023-03-19T15:34:28.895Z,98428.00
2023-03-19T15:37:04.571Z,98434.00
2023-03-19T15:39:36.643Z,98433.00
2023-03-19T15:42:04.988Z,98428.00
2023-03-19T15:44:39.671Z,98428.00
2023-03-19T15:47:11.490Z,98437.00
2023-03-19T15:49:46.827Z,98446.00
2023-03-19T15:52:16.916Z,98451.00
2023-03-19T15:54:43.891Z,98450.00
2023-03-19T15:57:14.117Z,98454.00
2023-03-19T15:59:42.042Z,98453.00
2023-03-19T16:02:22.584Z,98456.00
2023-03-19T16:05:18.159Z,98465.00
2023-03-19T16:07:50.805Z,98458.00
2023-03-19T16:10:39.603Z,98455.00
2023-03-19T16:13:31.747Z,98461.00
2023-03-19T16:16:06.810Z,98471.00
2023-03-19T16:19:02.897Z,98479.00
2023-03-19T16:21:38.758Z,98474.00
2023-03-19T16:24:08.336Z,98465.00
2023-03-19T16:26:39.776Z,98462.00
2023-03-19T16:29:27.488Z,98467.00
2023-03-19T16:32:02.392Z,98475.00
2023-03-19T16:34:46.364Z,98479.00
2023-03-19T16:37:37.911Z,98476.00
2023-03-19T16:40:43.681Z,98475.00
2023-03-19T16:43:22.088Z,98482.00
2023-03-19T16:46:03.586Z,98485.00
2023-03-19T16:48:30.233Z,98485.00
2023-03-19T16:50:57.364Z,98485.00
2023-03-19T16:53:27.015Z,98494.00
2023-03-19T16:55:55.889Z,98501.00
2023-03-19T16:58:36.964Z,98509.00
2023-03-19T17:01:30.446Z,98512.00
2023-03-19T17:03:57.134Z,98523.00
2023-03-19T17:06:23.771Z,98526.00
2023-03-19T17:08:50.445Z,98519.00
2023-03-19T17:11:35.999Z,98527.00
2023-03-19T17:14:03.351Z,98530.00
2023-03-19T17:16:30.331Z,98528.00
2023-03-19T17:18:57.198Z,98530.00
2023-03-19T17:21:28.649Z,98538.00
2023-03-19T17:23:55.742Z,98542.00
2023-03-19T17:26:27.723Z,98542.00
2023-03-19T17:28:56.242Z,98542.00
2023-03-19T17:31:33.364Z,98548.00
2023-03-19T17:34:16.208Z,98548.00
2023-03-19T17:36:46.298Z,98557.00
2023-03-19T17:39:12.973Z,98556.00
2023-03-19T17:41:40.040Z,98568.00
2023-03-19T17:44:06.969Z,98562.00
2023-03-19T17:46:54.562Z,98567.00
2023-03-19T17:49:24.110Z,98566.00
2023-03-19T17:51:51.449Z,98568.00
2023-03-19T17:54:18.404Z,98579.00
2023-03-19T17:56:44.919Z,98570.00
2023-03-19T17:59:11.987Z,98569.00
2023-03-19T18:01:43.038Z,98576.00
2023-03-19T18:04:14.265Z,98577.00
2023-03-19T18:06:45.296Z,98582.00
2023-03-19T18:09:19.980Z,98585.00
2023-03-19T18:11:46.643Z,98588.00
2023-03-19T18:14:13.290Z,98573.00
2023-03-19T18:16:40.247Z,98582.00
2023-03-19T18:19:18.468Z,98583.00
2023-03-19T18:21:45.027Z,98574.00
2023-03-19T18:24:12.542Z,98577.00
2023-03-19T18:26:39.073Z,98582.00
2023-03-19T18:29:05.618Z,98586.00
2023-03-19T18:31:32.278Z,98587.00
2023-03-19T18:34:02.778Z,98593.00
2023-03-19T18:36:31.835Z,98596.00
2023-03-19T18:38:59.453Z,98591.00
2023-03-19T18:41:29.018Z,98588.00
2023-03-19T18:44:05.958Z,98598.00
2023-03-19T18:46:34.726Z,98593.00
2023-03-19T18:49:11.385Z,98598.00
2023-03-19T18:51:41.595Z,98602.00
2023-03-19T18:54:14.795Z,98610.00
2023-03-19T18:56:42.559Z,98615.00
2023-03-19T18:59:30.886Z,98617.00
2023-03-19T19:02:09.720Z,98614.00
2023-03-19T19:04:36.490Z,98614.00
2023-03-19T19:07:03.096Z,98612.00
2023-03-19T19:09:29.700Z,98615.00
2023-03-19T19:11:58.596Z,98634.00
2023-03-19T19:14:25.283Z,98633.00
2023-03-19T19:16:53.464Z,98628.00
2023-03-19T19:19:23.213Z,98636.00
2023-03-19T19:21:51.024Z,98632.00
2023-03-19T19:24:17.810Z,98620.00
2023-03-19T19:26:45.827Z,98628.00
2023-03-19T19:29:23.636Z,98628.00
2023-03-19T19:31:50.740Z,98630.00
2023-03-19T19:34:17.634Z,98626.00
2023-03-19T19:36:44.211Z,98623.00
2023-03-19T19:39:11.434Z,98635.00
2023-03-19T19:41:39.841Z,98630.00
2023-03-19T19:44:06.950Z,98628.00
2023-03-19T19:46:33.677Z,98632.00
2023-03-19T19:49:00.330Z,98633.00
2023-03-19T19:51:29.352Z,98640.00
2023-03-19T19:53:56.198Z,98646.00
2023-03-19T19:56:25.673Z,98644.00
2023-03-19T19:58:54.838Z,98657.00
2023-03-19T20:01:24.851Z,98662.00
2023-03-19T20:03:52.466Z,98657.00
2023-03-19T20:06:19.736Z,98665.00
2023-03-19T20:08:49.346Z,98663.00
2023-03-19T20:11:22.511Z,98674.00
2023-03-19T20:13:52.523Z,98680.00
2023-03-19T20:16:20.756Z,98686.00
2023-03-19T20:18:47.769Z,98686.00
2023-03-19T20:21:15.798Z,98695.00
2023-03-19T20:23:44.415Z,98699.00
2023-03-19T20:26:16.551Z,98696.00
2023-03-19T20:28:44.680Z,98708.00
2023-03-19T20:31:40.993Z,98712.00
2023-03-19T20:34:22.483Z,98714.00
2023-03-19T20:36:55.558Z,98713.00
2023-03-19T20:39:22.381Z,98716.00
2023-03-19T20:41:49.704Z,98718.00
2023-03-19T20:44:22.209Z,98724.00
2023-03-19T20:46:48.813Z,98727.00
2023-03-19T20:49:15.504Z,98733.00
2023-03-19T20:51:42.061Z,98733.00
2023-03-19T20:54:08.664Z,98730.00
2023-03-19T20:56:38.634Z,98737.00
2023-03-19T20:59:05.714Z,98731.00
2023-03-19T21:01:32.339Z,98744.00
2023-03-19T21:03:58.907Z,98741.00
2023-03-19T21:06:25.487Z,98744.00
2023-03-19T21:08:57.125Z,98747.00
2023-03-19T21:11:33.619Z,98746.00
2023-03-19T21:14:00.108Z,98740.00
2023-03-19T21:16:29.119Z,98736.00
2023-03-19T21:18:55.651Z,98749.00
2023-03-19T21:21:35.287Z,98746.00
2023-03-19T21:24:06.731Z,98746.00
2023-03-19T21:26:37.485Z,98747.00
2023-03-19T21:29:08.206Z,98747.00
2023-03-19T21:31:34.884Z,98758.00
2023-03-19T21:34:01.580Z,98754.00
2023-03-19T21:36:28.992Z,98755.00
2023-03-19T21:38:55.661Z,98758.00
2023-03-19T21:41:26.072Z,98765.00
2023-03-19T21:43:56.260Z,98765.00
2023-03-19T21:46:28.368Z,98771.00
2023-03-19T21:48:56.869Z,98768.00
2023-03-19T21:51:25.089Z,98774.00
2023-03-19T21:53:52.031Z,98759.00
2023-03-19T21:56:24.586Z,98767.00
2023-03-19T21:58:52.407Z,98767.00
2023-03-19T22:01:22.454Z,98766.00
2023-03-19T22:03:50.171Z,98762.00
2023-03-19T22:06:17.129Z,98761.00
2023-03-19T22:08:48.236Z,98765.00
2023-03-19T22:11:24.481Z,98764.00
2023-03-19T22:13:51.229Z,98771.00
2023-03-19T22:16:25.154Z,98766.00
2023-03-19T22:18:52.396Z,98757.00
2023-03-19T22:21:21.194Z,98761.00
2023-03-19T22:23:48.247Z,98759.00
2023-03-19T22:26:42.926Z,98757.00
2023-03-19T22:29:22.795Z,98749.00
2023-03-19T22:31:51.406Z,98756.00
2023-03-19T22:34:20.098Z,98750.00
2023-03-19T22:36:46.661Z,98751.00
2023-03-19T22:39:13.703Z,98745.00
2023-03-19T22:41:45.411Z,98749.00
2023-03-19T22:44:25.539Z,98759.00
2023-03-19T22:46:53.916Z,98748.00
2023-03-19T22:49:20.476Z,98746.00
2023-03-19T22:51:47.348Z,98743.00
2023-03-19T22:54:14.029Z,98739.00
2023-03-19T22:56:40.606Z,98742.00
2023-03-19T22:59:07.313Z,98738.00
2023-03-19T23:01:45.171Z,98734.00
2023-03-19T23:04:18.074Z,98734.00
2023-03-19T23:06:44.990Z,98735.00
2023-03-19T23:09:21.614Z,98733.00
2023-03-19T23:11:48.523Z,98731.00
2023-03-19T23:14:28.402Z,98751.00
2023-03-19T23:19:28.136Z,98741.00
2023-03-19T23:21:54.955Z,98747.00
2023-03-19T23:24:22.094Z,98759.00
2023-03-19T23:26:50.867Z,98753.00
2023-03-19T23:29:22.372Z,98768.00
2023-03-19T23:31:51.299Z,98761.00
2023-03-19T23:34:17.982Z,98764.00
2023-03-19T23:36:44.962Z,98761.00
2023-03-19T23:39:11.617Z,98759.00
2023-03-19T23:41:45.598Z,98759.00
2023-03-19T23:44:14.255Z,98755.00
2023-03-19T23:46:41.579Z,98766.00
2023-03-19T23:49:17.395Z,98761.00
2023-03-19T23:51:44.021Z,98762.00
2023-03-19T23:54:28.425Z,98762.00
2023-03-19T23:56:58.323Z,98766.00
2023-03-19T23:59:27.074Z,98758.00
